Time;durP1;ratioP1;P1;durP2;ratioP2;P2;SDS_P1;SDS_P2;PMS_P1;PMS_P2;Temp;Humidity;BMP_temperature;BMP_pressure;BME280_temperature;BME280_humidity;BME280_pressure;Samples;Min_cycle;Max_cycle;Signal;HPM_P1;HPM_P2
2021/01/24 00:01:09;;;;;;;74.70;22.88;;;;;;;2.11;98.36;98572.28;3463123;28;20100;-57
2021/01/24 00:02:51;;;;;;;69.85;23.00;;;;;;;2.13;98.15;98569.78;3457101;28;20057;-47
2021/01/24 00:04:34;;;;;;;78.23;23.30;;;;;;;2.13;98.42;98562.97;3470145;28;20045;-56
2021/01/24 00:06:16;;;;;;;92.82;24.25;;;;;;;2.12;98.25;98552.69;3471861;28;20053;-58
2021/01/24 00:07:58;;;;;;;74.80;22.98;;;;;;;2.16;98.13;98553.63;3469539;28;20048;-49
2021/01/24 00:09:40;;;;;;;70.80;23.42;;;;;;;2.16;98.23;98551.06;3472233;28;20399;-47
2021/01/24 00:11:22;;;;;;;129.60;25.75;;;;;;;2.16;98.36;98554.50;3468805;28;20046;-58
2021/01/24 00:13:04;;;;;;;92.57;25.08;;;;;;;2.16;98.18;98543.41;3472866;28;20053;-58
2021/01/24 00:14:46;;;;;;;61.80;22.55;;;;;;;2.16;98.08;98539.13;3468589;28;20045;-58
2021/01/24 00:16:28;;;;;;;140.73;30.65;;;;;;;2.17;98.37;98537.47;3471505;28;20103;-57
2021/01/24 00:18:09;;;;;;;65.70;20.98;;;;;;;2.17;98.28;98545.16;3469793;28;20052;-58
2021/01/24 00:19:51;;;;;;;94.45;25.23;;;;;;;2.17;98.18;98538.34;3471511;28;20053;-48
2021/01/24 00:21:33;;;;;;;131.55;26.92;;;;;;;2.18;98.29;98539.19;3468766;28;20081;-58
2021/01/24 00:23:15;;;;;;;112.13;24.25;;;;;;;2.17;98.16;98533.22;3470602;28;20479;-58
2021/01/24 00:24:58;;;;;;;72.97;22.17;;;;;;;2.19;98.31;98530.69;3471782;28;20087;-49
2021/01/24 00:26:40;;;;;;;;;;;;;;;2.19;98.04;98528.16;3470237;28;20068;-51
2021/01/24 00:28:22;;;;;;;65.45;19.10;;;;;;;2.18;98.33;98532.38;3470922;28;19925;-50
2021/01/24 00:30:05;;;;;;;111.53;26.42;;;;;;;2.19;98.19;98526.44;3471095;28;20041;-50
2021/01/24 00:31:47;;;;;;;64.30;21.55;;;;;;;2.20;98.00;98519.63;3470008;28;20046;-47
2021/01/24 00:33:29;;;;;;;76.82;22.65;;;;;;;2.21;98.33;98516.25;3469560;28;20093;-48
2021/01/24 00:35:12;;;;;;;94.57;22.52;;;;;;;2.22;98.06;98515.41;3469931;28;20620;-58
2021/01/24 00:36:55;;;;;;;89.80;23.50;;;;;;;2.23;98.44;98506.94;3469741;28;20045;-58
2021/01/24 00:38:36;;;;;;;118.88;25.60;;;;;;;2.24;98.40;98506.13;3471676;28;20107;-58
2021/01/24 00:40:18;;;;;;;98.28;22.90;;;;;;;2.24;98.28;98499.31;3469414;28;20060;-58
2021/01/24 00:41:59;;;;;;;66.82;21.50;;;;;;;2.24;98.05;98501.84;3472869;28;20057;-58
2021/01/24 00:43:41;;;;;;;76.32;22.10;;;;;;;2.25;98.37;98498.50;3467535;28;20049;-58
2021/01/24 00:45:23;;;;;;;93.38;24.85;;;;;;;2.26;98.10;98502.75;3471217;28;20053;-58
2021/01/24 00:47:05;;;;;;;89.63;24.33;;;;;;;2.26;98.02;98505.31;3469013;28;20053;-58
2021/01/24 00:48:47;;;;;;;93.40;23.65;;;;;;;2.26;98.13;98502.75;3468367;28;20691;-58
2021/01/24 00:50:29;;;;;;;69.20;22.90;;;;;;;2.28;98.26;98511.34;3464665;28;20545;-58
2021/01/24 00:52:12;;;;;;;93.55;25.23;;;;;;;2.28;98.22;98505.38;3470222;28;20119;-52
2021/01/24 00:53:54;;;;;;;107.63;24.63;;;;;;;2.29;98.46;98500.28;3470968;28;20041;-48
2021/01/24 00:55:36;;;;;;;114.93;26.17;;;;;;;2.31;98.40;98506.31;3468615;28;20057;-51
2021/01/24 00:57:17;;;;;;;84.38;21.98;;;;;;;2.32;98.17;98500.38;3471282;28;20057;-52
2021/01/24 00:58:59;;;;;;;64.55;22.63;;;;;;;2.32;98.35;98494.38;3469522;28;20096;-49
2021/01/24 01:00:41;;;;;;;63.33;22.33;;;;;;;2.32;98.41;98497.81;3471548;28;20132;-52
2021/01/24 01:02:22;;;;;;;63.00;21.48;;;;;;;2.32;98.48;98490.16;3468945;28;20060;-52
2021/01/24 01:04:04;;;;;;;62.35;21.88;;;;;;;2.33;98.12;98486.75;3471697;28;20049;-58
2021/01/24 01:05:46;;;;;;;100.00;27.10;;;;;;;2.35;98.51;98489.34;3468810;28;20049;-52
2021/01/24 01:07:30;;;;;;;57.67;19.70;;;;;;;2.33;98.11;98486.75;3471958;28;20056;-50
2021/01/24 01:09:11;;;;;;;;;;;;;;;2.36;98.28;98479.97;3466736;28;20049;-48
2021/01/24 01:10:53;;;;;;;65.65;20.92;;;;;;;2.36;98.35;98478.31;3458047;28;19948;-49
2021/01/24 01:12:34;;;;;;;114.95;25.42;;;;;;;2.36;98.32;98477.41;3465419;28;20046;-49
2021/01/24 01:14:16;;;;;;;69.60;20.98;;;;;;;2.37;98.11;98485.13;3471848;28;20565;-50
2021/01/24 01:15:57;;;;;;;77.20;21.23;;;;;;;2.37;98.22;98480.03;3467190;28;20069;-58
2021/01/24 01:17:39;;;;;;;94.65;27.02;;;;;;;2.37;98.10;98490.25;3467529;28;20430;-58
2021/01/24 01:19:21;;;;;;;78.45;24.17;;;;;;;2.38;98.44;98493.66;3467090;28;20104;-49
2021/01/24 01:21:03;;;;;;;107.65;25.17;;;;;;;2.40;98.18;98497.16;3467616;28;20107;-49
2021/01/24 01:22:46;;;;;;;134.88;25.00;;;;;;;2.41;98.40;98498.88;3468875;28;20086;-58
2021/01/24 01:24:27;;;;;;;89.80;22.55;;;;;;;2.42;98.32;98498.06;3466937;28;20046;-48
2021/01/24 01:26:09;;;;;;;55.72;19.88;;;;;;;2.42;98.44;98492.97;3468926;28;20057;-58
2021/01/24 01:27:51;;;;;;;67.43;21.38;;;;;;;2.43;98.20;98485.31;3466728;28;20127;-58
2021/01/24 01:29:32;;;;;;;103.35;24.90;;;;;;;2.43;98.36;98485.31;3469195;28;20104;-58
2021/01/24 01:31:14;;;;;;;75.18;20.50;;;;;;;2.43;98.39;98480.19;3462428;28;20074;-58
2021/01/24 01:32:55;;;;;;;80.18;23.33;;;;;;;2.46;98.23;98481.97;3456121;28;20060;-50
2021/01/24 01:34:37;;;;;;;73.18;22.90;;;;;;;2.44;98.50;98487.03;3466313;28;20053;-58
2021/01/24 01:36:19;;;;;;;68.25;19.52;;;;;;;2.45;98.18;98482.81;3469458;28;20053;-58
2021/01/24 01:38:02;;;;;;;206.52;30.10;;;;;;;2.46;98.28;98487.94;3467518;28;20046;-58
2021/01/24 01:39:44;;;;;;;87.10;20.00;;;;;;;2.48;98.62;98482.88;3469673;28;20528;-48
2021/01/24 01:41:29;;;;;;;146.93;25.30;;;;;;;2.50;98.34;98491.44;3465510;28;20407;-58
2021/01/24 01:43:10;;;;;;;78.82;22.75;;;;;;;2.50;98.34;98483.75;3469036;28;20049;-58
2021/01/24 01:44:52;;;;;;;70.72;20.35;;;;;;;2.51;98.39;98472.72;3465239;28;20469;-47
2021/01/24 01:46:33;;;;;;;58.30;19.52;;;;;;;2.53;98.24;98490.69;3466512;28;20049;-50
2021/01/24 01:48:16;;;;;;;122.07;24.63;;;;;;;2.54;98.56;98480.47;3468114;28;20059;-51
2021/01/24 01:49:59;;;;;;;83.82;21.52;;;;;;;2.54;98.36;98472.81;3466431;28;20041;-48
2021/01/24 01:51:41;;;;;;;84.30;23.33;;;;;;;2.55;98.43;98469.41;3466848;28;20060;-48
2021/01/24 01:53:24;;;;;;;70.60;19.60;;;;;;;2.56;98.57;98468.59;3467095;28;20050;-50
2021/01/24 01:55:06;;;;;;;80.55;20.33;;;;;;;2.57;98.27;98479.69;3467449;28;20049;-58
2021/01/24 01:56:50;;;;;;;144.40;23.20;;;;;;;2.58;98.26;98472.03;3462395;28;20053;-58
2021/01/24 01:58:31;;;;;;;68.97;19.50;;;;;;;2.61;98.70;98471.28;3455263;28;20088;-57
2021/01/24 02:00:13;;;;;;;50.75;19.10;;;;;;;2.61;98.77;98463.59;3465713;28;20426;-57
2021/01/24 02:02:05;;;;;;;72.35;19.35;;;;;;;2.63;98.23;98459.38;3469789;28;20139;-58
2021/01/24 02:03:54;;;;;;;68.03;18.38;;;;;;;2.64;98.68;98449.19;3465934;28;20045;-57
2021/01/24 02:05:43;;;;;;;67.15;18.73;;;;;;;2.67;98.65;98456.06;3467914;28;20469;-49
2021/01/24 02:07:30;;;;;;;50.08;16.73;;;;;;;2.69;98.63;98452.72;3462916;28;20426;-57
2021/01/24 02:09:19;;;;;;;69.75;18.67;;;;;;;2.74;98.45;98451.97;3467767;28;20091;-58
2021/01/24 02:11:08;;;;;;;58.83;17.77;;;;;;;2.77;98.73;98452.03;3462765;28;20076;-47
2021/01/24 02:12:57;;;;;;;41.10;14.57;;;;;;;2.78;98.56;98448.63;3469300;28;20053;-48
2021/01/24 02:14:42;;;;;;;39.42;15.18;;;;;;;2.79;98.56;98433.31;3463233;28;20041;-57
2021/01/24 02:16:25;;;;;;;41.40;14.95;;;;;;;2.82;98.61;98435.09;3469672;28;20076;-58
2021/01/24 02:18:09;;;;;;;64.05;17.67;;;;;;;2.84;98.31;98431.72;3465226;28;20048;-57
2021/01/24 02:20:02;;;;;;;39.92;15.55;;;;;;;2.86;98.57;98426.66;3456004;28;20088;-49
2021/01/24 02:21:45;;;;;;;41.83;15.10;;;;;;;2.88;98.56;98433.53;3464458;28;20056;-57
2021/01/24 02:23:28;;;;;;;42.42;15.52;;;;;;;2.91;98.79;98430.19;3469394;28;20056;-57
2021/01/24 02:25:15;;;;;;;44.97;14.98;;;;;;;2.93;98.71;98438.78;3466207;28;20052;-52
2021/01/24 02:27:03;;;;;;;48.10;15.05;;;;;;;2.96;98.31;98440.53;3454780;28;20046;-50
2021/01/24 02:29:03;;;;;;;45.15;15.40;;;;;;;2.98;98.58;98433.78;3462928;28;20049;-47
2021/01/24 02:30:47;;;;;;;41.13;15.57;;;;;;;3.00;98.41;98437.22;3455586;28;20054;-57
2021/01/24 02:32:29;;;;;;;46.80;16.25;;;;;;;3.01;98.63;98433.81;3461711;28;20049;-57
2021/01/24 02:34:13;;;;;;;42.25;15.88;;;;;;;3.00;98.44;98435.53;3468077;28;20049;-57
2021/01/24 02:35:59;;;;;;;36.50;13.80;;;;;;;3.00;98.56;98429.53;3467163;28;20053;-57
2021/01/24 02:37:42;;;;;;;60.45;17.55;;;;;;;3.03;98.30;98429.59;3467785;28;20430;-57
2021/01/24 02:39:24;;;;;;;47.50;15.63;;;;;;;3.05;98.57;98427.97;3464662;28;20108;-48
2021/01/24 02:41:09;;;;;;;43.42;14.90;;;;;;;3.07;98.56;98431.41;3457246;28;20046;-49
2021/01/24 02:42:52;;;;;;;63.33;16.40;;;;;;;3.07;98.42;98432.28;3459983;28;20056;-51
2021/01/24 02:44:34;;;;;;;37.28;14.93;;;;;;;3.09;98.32;98424.63;3464993;28;20050;-50
2021/01/24 02:46:17;;;;;;;34.45;13.25;;;;;;;3.09;98.47;98422.06;3467966;28;20057;-47
2021/01/24 02:48:00;;;;;;;49.50;16.58;;;;;;;3.10;98.48;98426.38;3466546;28;20045;-56
2021/01/24 02:49:44;;;;;;;38.08;13.85;;;;;;;3.11;98.61;98429.78;3466488;28;20534;-57
2021/01/24 02:51:26;;;;;;;47.67;16.15;;;;;;;3.11;98.44;98420.41;3465885;28;20057;-50
2021/01/24 02:53:09;;;;;;;47.53;14.82;;;;;;;3.13;98.67;98423.88;3468299;28;20537;-57
2021/01/24 02:54:52;;;;;;;38.45;14.88;;;;;;;3.14;98.50;98420.47;3464901;28;20045;-57
2021/01/24 02:56:33;;;;;;;41.83;14.75;;;;;;;3.15;98.63;98416.22;3468797;28;20521;-51
2021/01/24 02:58:15;;;;;;;42.63;16.10;;;;;;;3.16;98.60;98418.81;3464643;28;20049;-49
2021/01/24 02:59:57;;;;;;;40.22;14.82;;;;;;;3.18;98.41;98421.41;3468747;28;20455;-57
2021/01/24 03:01:39;;;;;;;35.15;14.07;;;;;;;3.16;98.55;98426.50;3465594;28;20049;-48
2021/01/24 03:03:21;;;;;;;39.63;14.07;;;;;;;3.17;98.66;98409.41;3467779;28;20494;-57
2021/01/24 03:05:03;;;;;;;51.88;15.23;;;;;;;3.18;98.37;98409.47;3464968;28;20510;-57
2021/01/24 03:06:46;;;;;;;37.08;14.40;;;;;;;3.20;98.41;98412.91;3467729;28;20058;-57
2021/01/24 03:08:27;;;;;;;45.05;15.55;;;;;;;3.21;98.33;98404.41;3467465;28;20046;-57
2021/01/24 03:10:10;;;;;;;41.75;14.82;;;;;;;3.22;98.37;98400.16;3466136;28;20211;-57
2021/01/24 03:11:55;;;;;;;43.63;14.23;;;;;;;3.23;98.60;98397.63;3466965;28;20418;-57
2021/01/24 03:13:42;;;;;;;53.15;14.75;;;;;;;3.24;98.51;98398.47;3458393;28;20526;-56
2021/01/24 03:15:26;;;;;;;40.03;14.65;;;;;;;3.25;98.57;98400.22;3458401;28;20051;-57
2021/01/24 03:17:10;;;;;;;42.88;15.32;;;;;;;3.26;98.63;98394.28;3465607;28;20537;-48
2021/01/24 03:18:53;;;;;;;36.72;14.48;;;;;;;3.28;98.44;98397.72;3466012;28;20054;-48
2021/01/24 03:20:39;;;;;;;57.20;16.85;;;;;;;3.28;98.28;98387.47;3465280;28;20053;-52
2021/01/24 03:22:21;;;;;;;40.22;13.73;;;;;;;3.27;98.28;98386.59;3467527;28;20053;-47
2021/01/24 03:24:05;;;;;;;34.55;13.27;;;;;;;3.30;98.67;98390.94;3464679;28;20053;-49
2021/01/24 03:25:47;;;;;;;30.65;12.82;;;;;;;3.31;98.33;98384.09;3467922;28;20076;-50
2021/01/24 03:27:29;;;;;;;65.28;15.98;;;;;;;3.32;98.29;98380.72;3465009;28;20049;-48
2021/01/24 03:29:11;;;;;;;55.03;15.10;;;;;;;3.33;98.59;98379.88;3469109;28;20055;-57
2021/01/24 03:30:52;;;;;;;33.80;13.98;;;;;;;3.35;98.59;98373.06;3464657;28;20085;-47
2021/01/24 03:32:36;;;;;;;42.47;15.90;;;;;;;3.36;98.54;98378.25;3468538;28;20045;-56
2021/01/24 03:34:19;;;;;;;38.17;14.93;;;;;;;3.38;98.42;98371.47;3464501;28;20085;-57
2021/01/24 03:36:01;;;;;;;58.92;15.55;;;;;;;3.39;98.59;98368.06;3455541;28;20053;-48
2021/01/24 03:37:43;;;;;;;63.25;15.93;;;;;;;3.40;98.46;98368.91;3460780;28;20418;-57
2021/01/24 03:39:24;;;;;;;40.75;15.60;;;;;;;3.41;98.59;98373.22;3460785;28;20593;-57
2021/01/24 03:41:07;;;;;;;112.43;21.02;;;;;;;3.41;98.55;98371.50;3461241;28;20141;-57
2021/01/24 03:42:49;;;;;;;83.03;17.65;;;;;;;3.42;98.34;98368.13;3466282;28;20060;-57
2021/01/24 03:44:31;;;;;;;71.40;18.02;;;;;;;3.43;98.36;98374.13;3457962;28;20049;-48
2021/01/24 03:46:12;;;;;;;69.28;19.60;;;;;;;3.43;98.33;98367.28;3467115;28;20097;-57
2021/01/24 03:47:55;;;;;;;87.68;20.20;;;;;;;3.45;98.54;98372.44;3467708;28;20136;-49
2021/01/24 03:49:37;;;;;;;68.35;19.17;;;;;;;3.46;98.33;98377.59;3465079;28;20104;-57
2021/01/24 03:51:18;;;;;;;74.95;17.58;;;;;;;3.48;98.72;98380.19;3467228;28;20061;-57
2021/01/24 03:53:00;;;;;;;65.32;16.73;;;;;;;3.49;98.47;98373.38;3465999;28;20052;-57
2021/01/24 03:54:42;;;;;;;64.95;18.85;;;;;;;3.49;98.33;98374.25;3466371;28;20064;-52
2021/01/24 03:56:25;;;;;;;91.90;21.13;;;;;;;3.52;98.63;98376.00;3465100;28;20045;-52
2021/01/24 03:58:06;;;;;;;146.88;24.98;;;;;;;3.53;98.62;98372.63;3468366;28;20783;-49
2021/01/24 03:59:51;;;;;;;77.07;20.13;;;;;;;3.51;98.52;98367.47;3464117;28;20041;-56
2021/01/24 04:01:33;;;;;;;83.53;20.13;;;;;;;3.51;98.74;98362.34;3468021;28;20131;-51
2021/01/24 04:03:15;;;;;;;86.43;20.40;;;;;;;3.53;98.59;98365.78;3464297;28;20053;-56
2021/01/24 04:04:57;;;;;;;61.42;18.67;;;;;;;3.54;98.68;98366.63;3454643;28;20057;-56
2021/01/24 04:06:39;;;;;;;73.43;19.27;;;;;;;3.55;98.79;98358.97;3461655;28;20057;-57
2021/01/24 04:08:21;;;;;;;48.47;16.20;;;;;;;3.56;98.33;98362.41;3455379;28;20057;-54
2021/01/24 04:10:03;;;;;;;75.10;18.08;;;;;;;3.56;98.72;98370.09;3461302;28;20143;-54
2021/01/24 04:11:44;;;;;;;55.67;17.33;;;;;;;3.57;98.73;98361.59;3455840;28;20053;-54
2021/01/24 04:13:26;;;;;;;55.25;16.67;;;;;;;3.60;98.55;98359.94;3459954;28;20054;-52
2021/01/24 04:15:09;;;;;;;43.17;16.48;;;;;;;3.62;98.68;98362.53;3465057;28;20042;-50
2021/01/24 04:16:50;;;;;;;51.63;16.05;;;;;;;3.62;98.77;98358.28;3466625;28;20430;-48
2021/01/24 04:18:33;;;;;;;50.80;15.82;;;;;;;3.65;98.65;98354.91;3464461;28;20045;-54
2021/01/24 04:20:15;;;;;;;61.00;18.95;;;;;;;3.68;98.54;98357.53;3465638;28;20087;-55
2021/01/24 04:21:57;;;;;;;64.28;17.08;;;;;;;3.68;98.69;98342.13;3461941;28;20053;-54
2021/01/24 04:23:39;;;;;;;80.18;19.20;;;;;;;3.70;98.81;98352.44;3455114;28;20506;-55
2021/01/24 04:25:23;;;;;;;53.85;18.63;;;;;;;3.71;98.82;98349.91;3461871;28;20049;-54
2021/01/24 04:27:05;;;;;;;;;;;;;;;3.75;98.76;98340.56;3467078;28;20053;-56
2021/01/24 04:28:46;;;;;;;57.03;17.92;;;;;;;3.77;98.86;98346.59;3465436;28;19931;-51
2021/01/24 04:30:28;;;;;;;64.57;18.27;;;;;;;3.78;98.48;98345.75;3465436;28;20148;-47
2021/01/24 04:32:11;;;;;;;54.58;16.33;;;;;;;3.79;98.65;98353.50;3465081;28;20046;-49
2021/01/24 04:33:53;;;;;;;64.70;18.33;;;;;;;3.81;98.73;98345.81;3468317;28;20199;-54
2021/01/24 04:35:35;;;;;;;49.45;16.52;;;;;;;3.80;98.53;98342.38;3464752;28;20046;-48
2021/01/24 04:37:18;;;;;;;46.70;17.38;;;;;;;3.79;98.79;98340.66;3464637;28;20430;-54
2021/01/24 04:38:59;;;;;;;62.08;17.30;;;;;;;3.81;98.77;98344.13;3461525;28;20049;-53
2021/01/24 04:40:41;;;;;;;60.63;18.73;;;;;;;3.82;98.80;98338.16;3468032;28;20064;-54
2021/01/24 04:42:22;;;;;;;52.55;15.45;;;;;;;3.84;98.54;98340.72;3462880;28;20399;-50
2021/01/24 04:44:05;;;;;;;62.97;17.23;;;;;;;3.86;98.71;98339.09;3465444;28;20060;-53
2021/01/24 04:45:47;;;;;;;86.63;16.88;;;;;;;3.87;98.85;98337.38;3466138;28;20049;-54
2021/01/24 04:47:29;;;;;;;56.10;16.40;;;;;;;3.87;98.59;98335.66;3456122;28;20143;-51
2021/01/24 04:49:12;;;;;;;78.13;18.95;;;;;;;3.90;98.62;98340.84;3458449;28;20434;-54
2021/01/24 04:50:53;;;;;;;59.65;16.63;;;;;;;3.91;98.70;98337.47;3466621;28;20080;-49
2021/01/24 04:52:36;;;;;;;55.80;16.80;;;;;;;3.92;98.91;98330.63;3467600;28;20052;-51
2021/01/24 04:54:19;;;;;;;61.22;19.70;;;;;;;3.94;98.67;98334.09;3467209;28;20553;-49
2021/01/24 04:56:01;;;;;;;55.35;16.40;;;;;;;3.97;98.67;98342.69;3469896;28;20057;-53
2021/01/24 04:57:42;;;;;;;126.80;22.90;;;;;;;3.99;98.69;98324.78;3465909;28;20410;-54
2021/01/24 04:59:24;;;;;;;80.88;19.75;;;;;;;3.99;98.87;98328.19;3469357;28;20050;-54
2021/01/24 05:01:07;;;;;;;67.85;17.58;;;;;;;4.01;98.92;98323.94;3466100;28;20048;-55
2021/01/24 05:02:49;;;;;;;77.75;20.50;;;;;;;4.02;98.86;98325.69;3469909;28;20514;-54
2021/01/24 05:04:32;;;;;;;43.63;15.30;;;;;;;4.01;98.74;98328.22;3464506;28;20064;-53
2021/01/24 05:06:14;;;;;;;65.27;18.23;;;;;;;4.02;98.93;98329.97;3469538;28;20049;-54
2021/01/24 05:07:57;;;;;;;79.93;20.25;;;;;;;4.01;98.90;98326.50;3465501;28;20334;-48
2021/01/24 05:09:41;;;;;;;65.45;17.95;;;;;;;4.02;98.92;98330.81;3456645;28;20348;-51
2021/01/24 05:11:22;;;;;;;45.53;15.80;;;;;;;4.01;98.80;98334.22;3463694;28;20155;-54
2021/01/24 05:13:04;;;;;;;46.00;14.98;;;;;;;4.02;98.81;98324.84;3468856;28;20560;-49
2021/01/24 05:14:49;;;;;;;105.38;21.48;;;;;;;4.04;98.91;98330.84;3468569;28;20084;-51
2021/01/24 05:16:30;;;;;;;46.83;15.80;;;;;;;4.05;99.02;98327.44;3467291;28;20057;-48
2021/01/24 05:18:13;;;;;;;72.13;18.60;;;;;;;4.07;98.80;98319.75;3468485;28;20056;-49
2021/01/24 05:19:56;;;;;;;58.90;16.88;;;;;;;4.09;98.61;98328.34;3466275;28;20085;-48
2021/01/24 05:21:38;;;;;;;48.45;16.45;;;;;;;4.10;98.91;98330.09;3467078;28;20079;-51
2021/01/24 05:23:21;;;;;;;64.00;18.23;;;;;;;4.11;98.79;98325.00;3467047;28;20058;-49
2021/01/24 05:25:04;;;;;;;46.97;16.15;;;;;;;4.12;98.62;98324.13;3468416;28;20113;-48
2021/01/24 05:26:48;;;;;;;82.55;17.98;;;;;;;4.12;98.90;98318.16;3465843;28;20100;-47
2021/01/24 05:28:30;;;;;;;45.25;15.88;;;;;;;4.12;98.81;98324.13;3468872;28;20122;-48
2021/01/24 05:30:14;;;;;;;52.28;17.33;;;;;;;4.12;98.88;98319.00;3466392;28;20053;-47
2021/01/24 05:31:56;;;;;;;49.58;16.88;;;;;;;4.14;98.67;98324.16;3469927;28;20057;-48
2021/01/24 05:33:42;;;;;;;54.92;16.52;;;;;;;4.13;98.81;98325.88;3464655;28;20046;-48
2021/01/24 05:35:25;;;;;;;44.67;14.70;;;;;;;4.12;98.95;98324.13;3455868;28;20046;-48
2021/01/24 05:37:07;;;;;;;109.50;21.90;;;;;;;4.15;99.05;98323.34;3463319;28;20541;-49
2021/01/24 05:38:49;;;;;;;82.03;18.30;;;;;;;4.16;99.08;98325.94;3469577;28;20335;-51
2021/01/24 05:40:32;;;;;;;48.65;17.38;;;;;;;4.16;99.08;98320.81;3466824;28;20053;-49
2021/01/24 05:42:14;;;;;;;120.10;22.70;;;;;;;4.17;98.97;98329.34;3468228;28;20053;-47
2021/01/24 05:43:55;;;;;;;50.92;17.15;;;;;;;4.17;98.72;98321.66;3466891;28;20092;-50
2021/01/24 05:45:38;;;;;;;54.45;18.45;;;;;;;4.17;98.77;98317.38;3455596;28;20474;-50
2021/01/24 05:47:20;;;;;;;63.47;17.60;;;;;;;4.18;98.79;98319.13;3461123;28;20503;-48
2021/01/24 05:49:01;;;;;;;59.50;17.98;;;;;;;4.18;98.75;98318.25;3466667;28;20427;-48
2021/01/24 05:50:45;;;;;;;75.95;19.17;;;;;;;4.19;98.99;98313.16;3468691;28;20053;-48
2021/01/24 05:52:27;;;;;;;70.75;20.48;;;;;;;4.19;99.11;98317.41;3465191;28;20080;-48
2021/01/24 05:54:11;;;;;;;76.75;21.05;;;;;;;4.18;98.97;98316.56;3466763;28;20460;-48
2021/01/24 05:55:53;;;;;;;53.90;18.48;;;;;;;4.18;99.10;98305.44;3466239;28;20144;-53
2021/01/24 05:57:36;;;;;;;47.60;17.98;;;;;;;4.17;99.08;98308.81;3468517;28;20049;-50
2021/01/24 05:59:18;;;;;;;47.95;16.48;;;;;;;4.17;98.78;98304.53;3465567;28;20085;-49
2021/01/24 06:01:01;;;;;;;61.75;19.30;;;;;;;4.18;99.02;98302.88;3469150;28;20050;-55
2021/01/24 06:02:43;;;;;;;52.17;17.27;;;;;;;4.18;98.90;98305.44;3465127;28;20107;-53
2021/01/24 06:04:24;;;;;;;48.33;16.15;;;;;;;4.20;99.03;98296.06;3469129;28;20085;-55
2021/01/24 06:06:07;;;;;;;54.53;18.65;;;;;;;4.21;98.70;98303.78;3465500;28;20053;-53
2021/01/24 06:07:49;;;;;;;62.53;19.55;;;;;;;4.22;99.10;98297.78;3455349;28;20431;-56
2021/01/24 06:09:31;;;;;;;64.85;20.38;;;;;;;4.24;98.83;98297.81;3462816;28;20455;-55
2021/01/24 06:11:15;;;;;;;49.55;16.80;;;;;;;4.24;99.09;98285.00;3467894;28;20442;-52
2021/01/24 06:12:59;;;;;;;60.28;18.55;;;;;;;4.25;99.03;98296.09;3466153;28;20486;-50
2021/01/24 06:14:42;;;;;;;55.58;18.25;;;;;;;4.25;98.89;98291.88;3466967;28;20056;-49
2021/01/24 06:16:30;;;;;;;63.05;18.52;;;;;;;4.25;98.89;98285.84;3467462;28;20518;-52
2021/01/24 06:18:14;;;;;;;67.80;17.98;;;;;;;4.27;98.85;98284.19;3457020;28;20650;-52
2021/01/24 06:19:58;;;;;;;64.22;21.23;;;;;;;4.30;98.75;98276.50;3460773;28;20059;-47
2021/01/24 06:21:48;;;;;;;43.50;17.30;;;;;;;4.30;99.07;98281.66;3466175;28;20049;-48
2021/01/24 06:23:34;;;;;;;46.00;17.30;;;;;;;4.30;98.92;98285.09;3467891;28;20085;-48
2021/01/24 06:25:21;;;;;;;61.22;18.83;;;;;;;4.30;99.10;98282.53;3464813;28;20402;-51
2021/01/24 06:27:05;;;;;;;66.43;18.30;;;;;;;4.31;98.91;98284.25;3467878;28;20052;-49
2021/01/24 06:28:49;;;;;;;79.13;19.90;;;;;;;4.34;99.15;98286.88;3465065;28;20564;-49
2021/01/24 06:30:32;;;;;;;67.18;20.52;;;;;;;4.36;99.08;98286.91;3460344;28;20068;-47
2021/01/24 06:32:27;;;;;;;71.97;19.85;;;;;;;4.36;98.85;98292.03;3462794;28;20107;-48
2021/01/24 06:34:09;;;;;;;61.85;20.17;;;;;;;4.35;98.99;98286.03;3461205;28;20045;-49
2021/01/24 06:35:56;;;;;;;81.25;22.02;;;;;;;4.36;99.03;98292.03;3466091;28;20053;-49
2021/01/24 06:37:38;;;;;;;110.32;23.70;;;;;;;4.36;98.96;98290.31;3464644;28;20068;-49
2021/01/24 06:39:28;;;;;;;69.30;20.15;;;;;;;4.38;99.17;98292.91;3466122;28;20060;-47
2021/01/24 06:41:11;;;;;;;85.55;22.55;;;;;;;4.39;98.98;98292.09;3460677;28;20081;-48
2021/01/24 06:42:59;;;;;;;77.40;21.88;;;;;;;4.39;98.93;98292.09;3463055;28;20256;-48
2021/01/24 06:44:41;;;;;;;74.80;18.90;;;;;;;4.40;98.77;98297.22;3458054;28;20054;-48
2021/01/24 06:46:40;;;;;;;91.40;22.55;;;;;;;4.41;98.94;98296.41;3464490;28;20128;-48
2021/01/24 06:48:40;;;;;;;111.82;24.45;;;;;;;4.42;98.74;98289.53;3461802;28;20089;-49
2021/01/24 06:50:39;;;;;;;109.30;26.27;;;;;;;4.44;99.11;98290.44;3464033;28;20057;-51
2021/01/24 06:52:22;;;;;;;87.10;24.40;;;;;;;4.47;99.10;98289.63;3463021;28;20060;-51
2021/01/24 06:54:06;;;;;;;110.50;26.73;;;;;;;4.48;99.14;98292.22;3465120;28;20560;-55
2021/01/24 06:55:56;;;;;;;115.07;27.08;;;;;;;4.51;99.24;98293.97;3460303;28;20283;-55
2021/01/24 06:57:37;;;;;;;112.97;25.30;;;;;;;4.50;98.99;98303.38;3463998;28;20521;-54
2021/01/24 06:59:29;;;;;;;105.07;27.80;;;;;;;4.50;98.87;98308.50;3461899;28;20053;-55
2021/01/24 07:01:24;;;;;;;106.68;28.13;;;;;;;4.51;98.87;98302.56;3464509;28;20073;-55
2021/01/24 07:03:16;;;;;;;112.93;29.45;;;;;;;4.54;98.97;98299.16;3461973;28;20115;-55
2021/01/24 07:05:13;;;;;;;117.70;28.67;;;;;;;4.56;99.25;98294.91;3463227;28;20049;-49
2021/01/24 07:06:55;;;;;;;122.82;30.10;;;;;;;4.56;99.22;98293.19;3462159;28;20107;-50
2021/01/24 07:08:37;;;;;;;98.32;28.95;;;;;;;4.56;99.17;98288.06;3463608;28;20549;-50
2021/01/24 07:10:44;;;;;;;95.55;29.65;;;;;;;4.59;99.07;98287.25;3460409;28;20593;-49
2021/01/24 07:12:40;;;;;;;97.10;28.50;;;;;;;4.60;99.03;98283.84;3459977;28;20535;-50
2021/01/24 07:14:45;;;;;;;98.93;28.48;;;;;;;4.65;99.06;98291.59;3462808;28;20049;-52
2021/01/24 07:16:27;;;;;;;96.30;29.10;;;;;;;4.69;99.26;98288.22;3463137;28;20049;-49
2021/01/24 07:18:09;;;;;;;110.78;29.83;;;;;;;4.70;99.19;98284.84;3463292;28;20049;-51
2021/01/24 07:19:52;;;;;;;120.10;32.30;;;;;;;4.73;99.12;98283.19;3462328;28;20098;-51
2021/01/24 07:21:34;;;;;;;99.13;28.27;;;;;;;4.75;99.07;98281.47;3458692;28;20045;-51
2021/01/24 07:23:16;;;;;;;118.85;34.17;;;;;;;4.77;99.00;98284.09;3465873;28;20049;-52
2021/01/24 07:24:57;;;;;;;107.45;30.15;;;;;;;4.79;99.14;98274.69;3460604;28;20462;-51
2021/01/24 07:26:40;;;;;;;143.50;35.85;;;;;;;4.84;99.20;98282.47;3464600;28;20042;-53
2021/01/24 07:28:22;;;;;;;127.45;33.55;;;;;;;4.84;99.13;98285.03;3462043;28;20057;-52
2021/01/24 07:30:06;;;;;;;112.60;30.65;;;;;;;4.84;99.27;98275.63;3462233;28;20344;-48
2021/01/24 07:31:48;;;;;;;117.60;33.72;;;;;;;4.85;99.05;98287.63;3462633;28;20091;-51
2021/01/24 07:33:30;;;;;;;125.45;35.13;;;;;;;4.85;99.29;98290.19;3462624;28;20482;-52
2021/01/24 07:35:12;;;;;;;114.82;32.92;;;;;;;4.87;99.01;98291.09;3463296;28;20560;-52
2021/01/24 07:36:54;;;;;;;105.40;32.03;;;;;;;4.88;99.07;98292.81;3461095;28;20509;-51
2021/01/24 07:38:36;;;;;;;112.50;32.00;;;;;;;4.87;99.15;98296.22;3462755;28;20081;-50
2021/01/24 07:40:20;;;;;;;102.38;32.72;;;;;;;4.86;99.01;98289.34;3461260;28;20426;-51
2021/01/24 07:42:04;;;;;;;105.45;34.05;;;;;;;4.86;99.07;98288.50;3460605;28;20061;-51
2021/01/24 07:43:46;;;;;;;;;;;;;;;4.85;99.06;98286.75;3463634;28;20061;-51
2021/01/24 07:45:28;;;;;;;104.55;32.38;;;;;;;4.86;98.89;98288.50;3461309;28;19933;-52
2021/01/24 07:47:11;;;;;;;109.57;32.33;;;;;;;4.87;98.81;98285.09;3458398;28;20458;-55
2021/01/24 07:48:53;;;;;;;101.43;31.38;;;;;;;4.87;99.17;98288.50;3463007;28;20331;-49
2021/01/24 07:50:35;;;;;;;93.85;28.95;;;;;;;4.87;98.98;98280.81;3463243;28;20052;-52
2021/01/24 07:52:17;;;;;;;85.85;28.88;;;;;;;4.88;99.04;98282.53;3461034;28;20533;-48
2021/01/24 07:53:58;;;;;;;101.35;31.10;;;;;;;4.92;98.98;98284.31;3463486;28;20068;-55
2021/01/24 07:55:41;;;;;;;109.20;33.17;;;;;;;4.93;99.08;98273.16;3461591;28;20065;-49
2021/01/24 07:57:25;;;;;;;105.78;33.95;;;;;;;4.94;98.98;98271.47;3459300;28;20049;-55
2021/01/24 07:59:06;;;;;;;;;;;;;;;4.93;99.01;98275.72;3463795;28;20463;-55
2021/01/24 08:00:48;;;;;;;87.70;29.88;;;;;;;4.95;99.02;98273.19;3460297;28;19960;-50